Time;durP1;ratioP1;P1;durP2;ratioP2;P2;SDS_P1;SDS_P2;PMS_P1;PMS_P2;Temp;Humidity;BMP_temperature;BMP_pressure;BME280_temperature;BME280_humidity;BME280_pressure;Samples;Min_cycle;Max_cycle;Signal;HPM_P1;HPM_P2
2023/10/15 00:01:50;;;;;;;4.90;0.80;;;7.70;99.90;;;;;;4993323;28;20207;-74
2023/10/15 00:04:16;;;;;;;8.07;0.77;;;7.70;99.90;;;;;;4993266;28;20178;-74
2023/10/15 00:06:42;;;;;;;6.97;0.53;;;7.50;99.90;;;;;;4992975;28;20179;-75
2023/10/15 00:09:08;;;;;;;3.57;0.77;;;7.50;99.90;;;;;;4993113;28;20187;-74
2023/10/15 00:11:34;;;;;;;4.40;0.90;;;7.50;99.90;;;;;;4993071;28;20178;-74
2023/10/15 00:14:03;;;;;;;3.17;0.90;;;7.50;99.90;;;;;;4992903;28;20531;-74
2023/10/15 00:16:29;;;;;;;6.33;0.70;;;7.50;99.90;;;;;;4992870;28;20329;-75
2023/10/15 00:18:55;;;;;;;5.90;1.80;;;7.30;99.90;;;;;;4992918;28;20198;-74
2023/10/15 00:21:21;;;;;;;5.00;1.37;;;7.30;99.90;;;;;;4992832;28;20632;-75
2023/10/15 00:23:47;;;;;;;1.70;0.67;;;7.00;99.90;;;;;;4992869;28;20171;-75
2023/10/15 00:26:14;;;;;;;3.13;0.80;;;7.30;99.90;;;;;;4992788;28;20213;-74
2023/10/15 00:28:40;;;;;;;4.73;0.90;;;7.10;99.90;;;;;;4989905;28;20167;-75
2023/10/15 00:31:13;;;;;;;4.70;0.87;;;7.00;99.90;;;;;;4989443;28;20180;-74
2023/10/15 00:33:42;;;;;;;4.67;0.60;;;;;;;;;;4990491;28;20179;-75
2023/10/15 00:36:12;;;;;;;3.33;0.57;;;7.10;99.90;;;;;;4992362;28;20241;-75
2023/10/15 00:38:38;;;;;;;6.00;0.90;;;;;;;;;;4992542;28;20175;-75
2023/10/15 00:41:09;;;;;;;2.97;0.80;;;6.90;99.90;;;;;;4992489;28;20171;-75
2023/10/15 00:43:35;;;;;;;5.30;0.83;;;6.90;99.90;;;;;;4992419;28;20175;-74
2023/10/15 00:46:09;;;;;;;2.90;0.93;;;6.90;99.90;;;;;;4992289;28;20163;-74
2023/10/15 00:48:35;;;;;;;4.00;0.70;;;6.90;99.90;;;;;;4992434;28;20233;-73
2023/10/15 00:51:08;;;;;;;4.83;0.80;;;6.80;99.90;;;;;;4975104;28;20270;-74
2023/10/15 00:53:34;;;;;;;1.60;0.70;;;6.80;99.90;;;;;;4992180;28;20172;-74
2023/10/15 00:56:04;;;;;;;2.13;0.63;;;6.70;99.90;;;;;;4992134;28;20215;-74
2023/10/15 00:58:34;;;;;;;4.70;0.90;;;6.80;99.90;;;;;;4992430;28;20835;-73
2023/10/15 01:01:00;;;;;;;1.20;0.60;;;6.80;99.90;;;;;;4992894;28;20179;-74
2023/10/15 01:03:32;;;;;;;4.20;0.70;;;7.00;99.90;;;;;;4991968;28;20171;-74
2023/10/15 01:06:05;;;;;;;1.07;0.60;;;6.90;99.90;;;;;;4990612;28;20252;-74
2023/10/15 01:08:41;;;;;;;3.07;0.50;;;7.00;99.90;;;;;;4972513;28;20233;-74
2023/10/15 01:11:11;;;;;;;10.23;0.70;;;8.60;99.90;;;;;;4980299;28;20277;-74
2023/10/15 01:13:40;;;;;;;1.97;0.77;;;7.00;99.90;;;;;;4991955;28;20206;-74
2023/10/15 01:16:08;;;;;;;8.17;0.50;;;6.70;99.90;;;;;;4991678;28;20215;-74
2023/10/15 01:18:37;;;;;;;4.90;0.50;;;6.80;99.90;;;;;;4990276;28;20546;-75
2023/10/15 01:21:10;;;;;;;6.83;1.20;;;7.10;99.90;;;;;;4991798;28;20263;-74
2023/10/15 01:23:58;;;;;;;1.93;0.60;;;6.90;99.90;;;;;;4991611;28;20193;-75
2023/10/15 01:26:25;;;;;;;2.10;0.67;;;7.30;99.90;;;;;;4991472;28;20190;-74
2023/10/15 01:28:53;;;;;;;2.40;0.40;;;6.80;99.90;;;;;;4991946;28;20178;-75
2023/10/15 01:31:19;;;;;;;3.80;0.97;;;7.00;99.90;;;;;;4991361;28;20198;-74
2023/10/15 01:33:49;;;;;;;1.80;0.43;;;6.90;99.90;;;;;;4991166;28;20627;-74
2023/10/15 01:36:19;;;;;;;3.73;0.50;;;7.00;99.90;;;;;;4990801;28;20218;-74
2023/10/15 01:38:45;;;;;;;4.30;0.70;;;7.20;99.90;;;;;;4991712;28;20210;-74
2023/10/15 01:41:14;;;;;;;2.40;0.60;;;7.10;99.90;;;;;;4991656;28;20171;-74
2023/10/15 01:43:46;;;;;;;3.07;0.50;;;7.10;99.90;;;;;;4991478;28;20207;-75
2023/10/15 01:46:12;;;;;;;3.50;0.70;;;6.90;99.90;;;;;;4991523;28;20257;-74
2023/10/15 01:48:41;;;;;;;2.90;0.63;;;6.70;99.90;;;;;;4991534;28;20176;-74
2023/10/15 01:51:07;;;;;;;3.13;1.00;;;6.70;99.90;;;;;;4991699;28;20186;-74
2023/10/15 01:53:37;;;;;;;3.10;0.60;;;6.60;99.90;;;;;;4991646;28;20183;-74
2023/10/15 01:56:04;;;;;;;2.37;0.70;;;6.50;99.90;;;;;;4991362;28;20237;-74
2023/10/15 01:58:32;;;;;;;4.00;0.60;;;6.60;99.90;;;;;;4990426;28;20172;-75
2023/10/15 02:01:21;;;;;;;0.87;0.40;;;6.50;99.90;;;;;;4991450;28;20217;-75
2023/10/15 02:03:50;;;;;;;3.23;0.67;;;6.60;99.90;;;;;;4991404;28;20186;-75
2023/10/15 02:06:19;;;;;;;1.13;0.50;;;6.30;99.90;;;;;;4991080;28;20258;-74
2023/10/15 02:08:46;;;;;;;1.00;0.53;;;6.40;99.90;;;;;;4991086;28;20227;-74
2023/10/15 02:11:21;;;;;;;2.60;0.60;;;6.40;99.90;;;;;;4991430;28;20179;-74
2023/10/15 02:13:47;;;;;;;2.27;0.53;;;6.30;99.90;;;;;;4974600;28;20185;-74
2023/10/15 02:16:17;;;;;;;2.30;0.40;;;6.30;99.90;;;;;;4995082;28;20217;-74
2023/10/15 02:18:51;;;;;;;3.27;0.67;;;6.20;99.90;;;;;;4995193;28;20210;-74
2023/10/15 02:21:16;;;;;;;4.97;1.03;;;6.40;99.90;;;;;;4993613;28;20187;-74
2023/10/15 02:23:51;;;;;;;2.57;0.70;;;6.20;99.90;;;;;;4995021;28;20258;-75
2023/10/15 02:26:30;;;;;;;1.60;0.67;;;6.30;99.90;;;;;;4994889;28;20181;-74
2023/10/15 02:29:05;;;;;;;2.93;0.70;;;;;;;;;;4994940;28;20178;-74
2023/10/15 02:31:31;;;;;;;3.87;0.60;;;6.20;99.90;;;;;;4994775;28;20198;-74
2023/10/15 02:33:57;;;;;;;5.03;0.67;;;6.20;99.90;;;;;;4994836;28;20762;-74
2023/10/15 02:36:25;;;;;;;5.30;0.70;;;6.20;99.90;;;;;;4994715;28;20210;-74
2023/10/15 02:38:54;;;;;;;3.53;0.70;;;6.20;99.90;;;;;;4994815;28;20171;-74
2023/10/15 02:41:40;;;;;;;5.23;0.80;;;6.20;99.90;;;;;;4994728;28;20262;-74
2023/10/15 02:44:12;;;;;;;2.53;0.70;;;6.10;99.90;;;;;;4994708;28;20163;-74
2023/10/15 02:46:47;;;;;;;1.80;0.57;;;5.90;99.90;;;;;;4994407;28;20728;-74
2023/10/15 02:49:15;;;;;;;3.53;0.80;;;6.10;99.90;;;;;;4994700;28;20194;-74
2023/10/15 02:51:42;;;;;;;4.17;0.80;;;6.10;99.90;;;;;;4994015;28;20175;-75
2023/10/15 02:54:49;;;;;;;3.23;0.60;;;6.20;99.90;;;;;;4976636;28;20171;-74
2023/10/15 02:56:57;;;;;;;3.50;0.80;;;6.10;99.90;;;;;;4990972;28;20251;-74
2023/10/15 02:59:29;;;;;;;3.87;0.83;;;8.40;99.90;;;;;;4993924;28;20262;-74
2023/10/15 03:01:56;;;;;;;4.27;0.97;;;6.10;99.90;;;;;;4994027;28;20179;-74
2023/10/15 03:04:32;;;;;;;1.40;0.63;;;6.20;99.90;;;;;;4994097;28;20179;-74
2023/10/15 03:07:17;;;;;;;4.20;0.60;;;7.70;99.90;;;;;;4993532;28;20223;-74
2023/10/15 03:09:44;;;;;;;2.70;0.60;;;6.00;99.90;;;;;;4994251;28;20179;-74
2023/10/15 03:12:13;;;;;;;3.63;0.60;;;;;;;;;;4993946;28;20190;-74
2023/10/15 03:14:41;;;;;;;2.80;0.60;;;5.70;99.90;;;;;;4994008;28;20626;-74
2023/10/15 03:17:13;;;;;;;3.43;0.70;;;5.80;99.90;;;;;;4993862;28;20206;-74
2023/10/15 03:19:41;;;;;;;1.87;0.57;;;5.80;99.90;;;;;;4993898;28;20179;-74
2023/10/15 03:22:10;;;;;;;2.23;0.60;;;5.60;99.90;;;;;;4974941;28;20203;-74
2023/10/15 03:24:36;;;;;;;2.50;0.50;;;5.40;99.90;;;;;;4993185;28;20226;-74
2023/10/15 03:27:04;;;;;;;4.30;0.70;;;5.60;99.90;;;;;;4993447;28;20229;-75
2023/10/15 03:29:30;;;;;;;2.90;0.70;;;;;;;;;;4976108;28;20628;-75
2023/10/15 03:32:09;;;;;;;6.27;0.83;;;5.90;99.90;;;;;;4975928;28;20171;-74
2023/10/15 03:34:42;;;;;;;2.43;0.50;;;5.60;99.90;;;;;;4962887;28;20175;-75
2023/10/15 03:37:15;;;;;;;1.33;0.50;;;5.70;99.90;;;;;;4993646;28;20191;-74
2023/10/15 03:42:10;;;;;;;4.27;0.67;;;5.90;99.90;;;;;;4993544;28;20654;-75
2023/10/15 03:44:44;;;;;;;1.83;0.50;;;5.70;99.90;;;;;;4993339;28;20188;-74
2023/10/15 03:47:14;;;;;;;3.00;0.83;;;6.30;99.90;;;;;;4993531;28;20183;-74
2023/10/15 03:49:39;;;;;;;1.50;0.73;;;5.60;99.90;;;;;;4993333;28;20210;-74
2023/10/15 03:52:14;;;;;;;7.57;0.80;;;;;;;;;;4993073;28;20215;-75
2023/10/15 03:54:42;;;;;;;2.37;0.70;;;5.90;99.90;;;;;;4975945;28;20178;-74
2023/10/15 03:57:08;;;;;;;2.37;0.53;;;5.90;99.90;;;;;;4993024;28;20646;-73
2023/10/15 03:59:42;;;;;;;4.57;0.80;;;5.90;99.90;;;;;;4993009;28;20179;-73
2023/10/15 04:02:11;;;;;;;1.90;0.70;;;5.80;99.90;;;;;;4993272;28;20579;-74
2023/10/15 04:04:38;;;;;;;2.40;0.60;;;5.80;99.90;;;;;;4993145;28;20714;-74
2023/10/15 04:07:12;;;;;;;1.17;0.40;;;5.70;99.90;;;;;;4992959;28;20272;-74
2023/10/15 04:09:38;;;;;;;4.63;0.70;;;5.60;99.90;;;;;;4993117;28;20220;-73
2023/10/15 04:12:06;;;;;;;1.93;0.40;;;5.70;99.90;;;;;;4993241;28;21012;-74
2023/10/15 04:14:32;;;;;;;3.60;0.50;;;5.50;99.90;;;;;;4993079;28;20245;-74
2023/10/15 04:16:58;;;;;;;1.87;0.80;;;5.60;99.90;;;;;;4992913;28;20207;-74
2023/10/15 04:19:31;;;;;;;3.73;0.60;;;5.60;99.90;;;;;;4975506;28;20180;-74
2023/10/15 04:22:00;;;;;;;4.20;0.53;;;5.50;99.90;;;;;;4992892;28;20255;-74
2023/10/15 04:24:36;;;;;;;1.87;0.50;;;5.40;99.90;;;;;;4992866;28;20167;-74
2023/10/15 04:27:02;;;;;;;3.90;0.53;;;;;;;;;;4992836;28;20194;-74
2023/10/15 04:29:30;;;;;;;1.27;0.50;;;5.40;99.90;;;;;;4992653;28;20210;-74
2023/10/15 04:32:09;;;;;;;2.40;0.60;;;5.30;99.90;;;;;;4992739;28;20175;-74
2023/10/15 04:34:36;;;;;;;2.43;0.97;;;;;;;;;;4976843;28;20183;-74
2023/10/15 04:37:16;;;;;;;2.93;0.67;;;;;;;;;;4991948;28;20305;-74
2023/10/15 04:39:52;;;;;;;2.80;0.60;;;5.10;99.90;;;;;;4992545;28;20178;-74
2023/10/15 04:42:25;;;;;;;2.20;0.53;;;5.10;99.90;;;;;;4992473;28;20194;-73
2023/10/15 04:44:51;;;;;;;1.20;0.50;;;5.10;99.90;;;;;;4992213;28;20202;-74
2023/10/15 04:47:59;;;;;;;2.40;0.50;;;5.10;99.90;;;;;;4992653;28;20187;-73
2023/10/15 04:50:14;;;;;;;4.50;0.63;;;6.30;99.90;;;;;;4986828;28;20215;-73
2023/10/15 04:52:43;;;;;;;4.87;0.53;;;5.60;99.90;;;;;;4992023;28;20265;-73
2023/10/15 04:55:14;;;;;;;2.40;0.50;;;5.50;99.90;;;;;;4992328;28;20209;-73
2023/10/15 04:57:44;;;;;;;2.73;0.47;;;5.30;99.90;;;;;;4992115;28;20646;-73
2023/10/15 05:00:11;;;;;;;1.87;0.60;;;5.20;99.90;;;;;;4991618;28;20634;-73
2023/10/15 05:02:37;;;;;;;1.87;0.70;;;;;;;;;;4991796;28;20183;-73
2023/10/15 05:05:06;;;;;;;2.93;0.60;;;5.00;99.90;;;;;;4992035;28;20178;-73
2023/10/15 05:07:32;;;;;;;4.60;0.60;;;5.00;99.90;;;;;;4991550;28;20215;-74
2023/10/15 05:09:59;;;;;;;1.77;0.57;;;4.90;99.90;;;;;;4991909;28;20213;-74
2023/10/15 05:12:26;;;;;;;1.17;0.30;;;5.10;99.90;;;;;;4991588;28;20179;-74
2023/10/15 05:14:51;;;;;;;4.47;0.70;;;5.00;99.90;;;;;;4991489;28;20183;-74
2023/10/15 05:17:17;;;;;;;2.83;0.80;;;5.20;99.90;;;;;;4991661;28;20178;-75
2023/10/15 05:19:43;;;;;;;2.23;0.50;;;5.30;99.90;;;;;;4991717;28;20191;-74
2023/10/15 05:22:09;;;;;;;2.03;0.50;;;5.10;99.90;;;;;;4991576;28;20185;-75
2023/10/15 05:24:36;;;;;;;2.13;0.67;;;5.30;99.90;;;;;;4991034;28;20179;-74
2023/10/15 05:27:01;;;;;;;4.20;0.80;;;5.00;99.90;;;;;;4991736;28;20179;-75
2023/10/15 05:29:27;;;;;;;1.73;0.40;;;5.00;99.90;;;;;;4989915;28;20175;-74
2023/10/15 05:31:57;;;;;;;4.50;0.60;;;5.00;99.90;;;;;;4990882;28;20651;-74
2023/10/15 05:34:22;;;;;;;0.90;0.53;;;5.00;99.90;;;;;;4991507;28;20179;-74
2023/10/15 05:36:48;;;;;;;2.50;0.50;;;4.90;99.90;;;;;;4973918;28;20593;-74
2023/10/15 05:39:15;;;;;;;2.03;0.57;;;5.20;99.90;;;;;;4974042;28;20311;-74
2023/10/15 05:41:42;;;;;;;2.03;0.43;;;4.90;99.90;;;;;;4991299;28;20668;-74
2023/10/15 05:44:08;;;;;;;4.23;0.60;;;5.10;99.90;;;;;;4991392;28;20222;-74
2023/10/15 05:46:33;;;;;;;1.17;0.40;;;5.00;99.90;;;;;;4973843;28;20175;-74
2023/10/15 05:48:59;;;;;;;3.60;0.60;;;5.00;99.90;;;;;;4994146;28;20174;-74
2023/10/15 05:51:26;;;;;;;2.90;0.40;;;5.10;99.90;;;;;;4995146;28;20175;-74
2023/10/15 05:53:51;;;;;;;6.17;0.60;;;4.80;99.90;;;;;;4995437;28;20175;-74
2023/10/15 05:56:18;;;;;;;4.17;0.60;;;4.60;99.90;;;;;;4994974;28;20353;-75
2023/10/15 05:58:44;;;;;;;1.43;0.50;;;4.90;99.90;;;;;;4995190;28;20167;-73
2023/10/15 06:01:10;;;;;;;2.40;0.73;;;4.90;99.90;;;;;;4978110;28;20174;-74
2023/10/15 06:03:37;;;;;;;3.57;0.50;;;6.40;99.90;;;;;;4995100;28;20715;-73
2023/10/15 06:06:05;;;;;;;2.97;0.50;;;4.70;99.90;;;;;;4995177;28;20202;-74
2023/10/15 06:08:30;;;;;;;2.43;0.60;;;4.80;99.90;;;;;;4994706;28;20232;-73
2023/10/15 06:10:57;;;;;;;5.03;0.70;;;4.90;99.90;;;;;;4984106;28;20210;-74
2023/10/15 06:13:23;;;;;;;4.43;0.57;;;6.70;99.90;;;;;;4975625;28;20650;-75
2023/10/15 06:15:50;;;;;;;2.73;0.93;;;4.90;99.90;;;;;;4975756;28;20214;-73
2023/10/15 06:18:16;;;;;;;1.70;0.70;;;4.80;99.90;;;;;;4975722;28;20188;-74
2023/10/15 06:20:41;;;;;;;2.03;0.60;;;4.90;99.90;;;;;;4991375;28;20306;-75
2023/10/15 06:23:08;;;;;;;10.07;0.70;;;5.00;99.90;;;;;;4994817;28;20634;-74
2023/10/15 06:25:35;;;;;;;1.37;0.47;;;4.80;99.90;;;;;;4995350;28;20179;-74
2023/10/15 06:28:01;;;;;;;2.10;0.53;;;6.60;99.90;;;;;;4994867;28;20171;-74
2023/10/15 06:30:27;;;;;;;3.77;0.60;;;4.80;99.90;;;;;;4994649;28;20261;-76
2023/10/15 06:32:53;;;;;;;2.67;0.60;;;5.10;99.90;;;;;;4994851;28;20255;-74
2023/10/15 06:35:22;;;;;;;4.70;0.83;;;5.00;99.90;;;;;;4994500;28;20219;-74
2023/10/15 06:37:55;;;;;;;5.20;0.60;;;4.80;99.90;;;;;;4994822;28;20171;-72
2023/10/15 06:40:21;;;;;;;2.40;0.53;;;4.90;99.90;;;;;;4994826;28;20179;-76
2023/10/15 06:42:47;;;;;;;1.17;0.60;;;6.80;99.90;;;;;;4994861;28;20183;-74
2023/10/15 06:45:18;;;;;;;3.83;0.77;;;5.10;99.90;;;;;;4994700;28;20175;-75
2023/10/15 06:47:45;;;;;;;5.23;0.60;;;5.30;99.90;;;;;;4993962;28;20233;-75
2023/10/15 06:50:11;;;;;;;1.83;0.63;;;;;;;;;;4994570;28;20189;-74
2023/10/15 06:52:41;;;;;;;2.83;0.70;;;5.10;99.90;;;;;;4994531;28;20175;-74
2023/10/15 06:55:07;;;;;;;2.20;0.53;;;4.90;99.90;;;;;;4994405;28;20195;-75
2023/10/15 06:57:38;;;;;;;3.00;0.63;;;5.00;99.90;;;;;;4994336;28;20175;-73
2023/10/15 07:00:08;;;;;;;2.40;0.77;;;5.10;99.90;;;;;;4993553;28;20298;-73
2023/10/15 07:02:34;;;;;;;1.93;0.50;;;5.20;99.90;;;;;;4976850;28;20226;-71
2023/10/15 07:05:02;;;;;;;1.53;0.80;;;5.00;99.90;;;;;;4993838;28;20180;-73
2023/10/15 07:07:29;;;;;;;5.10;0.53;;;5.40;99.90;;;;;;4993832;28;20219;-72
2023/10/15 07:09:55;;;;;;;2.10;0.70;;;;;;;;;;4994186;28;20174;-72
2023/10/15 07:12:21;;;;;;;4.10;0.80;;;5.30;99.90;;;;;;4973385;28;20658;-73
2023/10/15 07:14:48;;;;;;;2.70;0.77;;;5.30;99.90;;;;;;4985470;28;20183;-72
2023/10/15 07:17:15;;;;;;;3.73;0.73;;;5.20;99.90;;;;;;4994004;28;20199;-72
2023/10/15 07:19:41;;;;;;;5.60;1.03;;;5.40;99.90;;;;;;4994318;28;20210;-72
2023/10/15 07:22:06;;;;;;;4.00;0.70;;;5.60;99.90;;;;;;4994012;28;20654;-72
2023/10/15 07:24:33;;;;;;;3.23;0.83;;;5.60;99.90;;;;;;4994140;28;20171;-73
2023/10/15 07:27:00;;;;;;;1.50;0.80;;;5.60;99.90;;;;;;4993870;28;20175;-75
2023/10/15 07:29:28;;;;;;;1.83;0.80;;;;;;;;;;4976217;28;20255;-74
2023/10/15 07:31:54;;;;;;;4.67;0.80;;;;;;;;;;4992995;28;20186;-74
2023/10/15 07:34:22;;;;;;;2.53;0.80;;;;;;;;;;4993473;28;20179;-74
2023/10/15 07:36:50;;;;;;;3.43;1.10;;;5.70;99.90;;;;;;4993759;28;20207;-74
2023/10/15 07:39:17;;;;;;;1.97;1.23;;;5.40;99.90;;;;;;4992565;28;20160;-74
2023/10/15 07:41:43;;;;;;;3.53;1.00;;;;;;;;;;4993158;28;20257;-74
2023/10/15 07:44:10;;;;;;;2.70;1.23;;;5.90;99.90;;;;;;4992677;28;20229;-74
2023/10/15 07:46:36;;;;;;;3.13;1.50;;;5.90;99.90;;;;;;4992985;28;20584;-74
2023/10/15 07:49:03;;;;;;;4.13;1.50;;;5.90;99.90;;;;;;4993128;28;20214;-74
2023/10/15 07:51:29;;;;;;;4.93;1.70;;;;;;;;;;4976170;28;20684;-74
2023/10/15 07:53:55;;;;;;;4.00;1.60;;;6.30;99.90;;;;;;4993267;28;20175;-74
2023/10/15 07:56:21;;;;;;;5.00;1.60;;;6.20;99.90;;;;;;4993360;28;21001;-75
2023/10/15 07:58:48;;;;;;;2.53;1.57;;;;;;;;;;4992841;28;20185;-74
2023/10/15 08:01:14;;;;;;;4.63;1.90;;;;;;;;;;4993455;28;20270;-74
2023/10/15 08:03:40;;;;;;;2.87;1.60;;;6.20;99.90;;;;;;4992572;28;20178;-74
2023/10/15 08:06:07;;;;;;;2.53;1.77;;;7.20;99.90;;;;;;4993185;28;20231;-74
2023/10/15 08:08:34;;;;;;;6.17;1.77;;;8.30;99.90;;;;;;4992941;28;20725;-73
2023/10/15 08:11:00;;;;;;;3.97;1.57;;;;;;;;;;4974803;28;20578;-72
2023/10/15 08:13:26;;;;;;;4.20;1.30;;;9.00;99.90;;;;;;4975071;28;20714;-73
2023/10/15 08:15:52;;;;;;;4.43;1.50;;;;;;;;;;4990638;28;20309;-73
2023/10/15 08:18:18;;;;;;;4.43;1.43;;;8.80;99.90;;;;;;4992926;28;20179;-73
2023/10/15 08:20:44;;;;;;;2.60;1.80;;;8.70;99.90;;;;;;4990402;28;20650;-73
2023/10/15 08:23:11;;;;;;;4.83;1.80;;;8.60;99.90;;;;;;4976111;28;20172;-73
2023/10/15 08:25:36;;;;;;;6.80;1.90;;;8.60;99.90;;;;;;4973134;28;20226;-73
2023/10/15 08:28:03;;;;;;;5.03;1.97;;;8.30;99.90;;;;;;4982536;28;20265;-73
2023/10/15 08:30:32;;;;;;;5.87;1.87;;;8.40;99.90;;;;;;4992045;28;20183;-72
2023/10/15 08:32:58;;;;;;;6.07;2.73;;;8.40;99.90;;;;;;4992151;28;20186;-74
2023/10/15 08:35:24;;;;;;;5.57;1.87;;;8.30;99.90;;;;;;4991809;28;20211;-73
2023/10/15 08:37:49;;;;;;;3.97;1.93;;;8.30;99.90;;;;;;4974558;28;20185;-73
2023/10/15 08:40:15;;;;;;;8.10;3.00;;;8.30;99.90;;;;;;4992016;28;20222;-73
2023/10/15 08:43:06;;;;;;;11.07;3.00;;;8.10;99.90;;;;;;4992175;28;20175;-73
2023/10/15 08:45:33;;;;;;;4.87;2.50;;;8.40;99.90;;;;;;4978375;28;20202;-73
2023/10/15 08:48:01;;;;;;;5.53;2.60;;;8.40;99.90;;;;;;4992272;28;20186;-72
2023/10/15 08:50:29;;;;;;;6.77;2.03;;;8.50;99.90;;;;;;4991773;28;20233;-72
2023/10/15 08:52:55;;;;;;;4.53;2.50;;;8.90;99.90;;;;;;4992066;28;20171;-73
2023/10/15 08:55:25;;;;;;;3.87;1.97;;;;;;;;;;4991563;28;20207;-72
2023/10/15 08:57:54;;;;;;;6.40;2.23;;;8.70;99.90;;;;;;4991522;28;20262;-73
2023/10/15 09:00:30;;;;;;;7.07;2.27;;;9.20;99.90;;;;;;4974540;28;20206;-73
2023/10/15 09:02:57;;;;;;;5.93;2.20;;;8.90;99.90;;;;;;4990887;28;20171;-73
2023/10/15 09:05:23;;;;;;;7.47;1.73;;;9.20;99.90;;;;;;4991253;28;20225;-74
2023/10/15 09:07:52;;;;;;;4.47;1.77;;;9.20;99.90;;;;;;4990688;28;20779;-73
2023/10/15 09:10:18;;;;;;;6.00;1.80;;;9.60;99.90;;;;;;4991399;28;20634;-74
2023/10/15 09:12:44;;;;;;;3.33;1.43;;;9.30;99.90;;;;;;4959491;28;20181;-73
2023/10/15 09:15:16;;;;;;;6.73;1.57;;;9.60;99.90;;;;;;4991661;28;20305;-74
2023/10/15 09:17:46;;;;;;;3.63;0.90;;;9.60;99.90;;;;;;4989689;28;20647;-74
2023/10/15 09:20:12;;;;;;;3.37;0.80;;;10.00;99.90;;;;;;4977811;28;20180;-74
2023/10/15 09:22:39;;;;;;;3.27;1.00;;;10.20;99.90;;;;;;4984092;28;20205;-74
2023/10/15 09:25:05;;;;;;;1.93;0.60;;;10.40;99.90;;;;;;4991386;28;20626;-73
2023/10/15 09:27:31;;;;;;;6.87;0.90;;;10.60;99.90;;;;;;4991282;28;20179;-74
2023/10/15 09:30:18;;;;;;;5.90;0.97;;;10.40;99.90;;;;;;4991032;28;20267;-73
2023/10/15 09:32:46;;;;;;;3.20;0.70;;;10.70;99.90;;;;;;4991207;28;20183;-73
2023/10/15 09:35:13;;;;;;;5.57;0.80;;;10.60;99.90;;;;;;4981571;28;20274;-74
2023/10/15 09:37:42;;;;;;;3.50;0.70;;;10.60;99.90;;;;;;4987523;28;20179;-74
2023/10/15 09:40:31;;;;;;;1.87;0.60;;;10.80;99.90;;;;;;4973843;28;20168;-74
2023/10/15 09:42:56;;;;;;;1.23;0.50;;;11.20;99.90;;;;;;4991715;28;20183;-73
2023/10/15 09:45:25;;;;;;;3.17;0.50;;;11.40;99.90;;;;;;4984542;28;20194;-74
2023/10/15 09:47:54;;;;;;;2.60;0.60;;;11.30;99.90;;;;;;4980675;28;20258;-73
2023/10/15 09:50:24;;;;;;;2.97;0.70;;;;;;;;;;4965298;28;20175;-73
2023/10/15 09:53:00;;;;;;;3.20;0.67;;;11.10;99.90;;;;;;4981140;28;20174;-73
2023/10/15 09:55:28;;;;;;;1.63;0.60;;;11.30;99.90;;;;;;4982380;28;20241;-74
2023/10/15 09:57:58;;;;;;;3.57;0.60;;;11.50;99.90;;;;;;4977135;28;20259;-75
2023/10/15 10:00:47;;;;;;;3.40;0.80;;;11.70;99.90;;;;;;4971882;28;20191;-73
2023/10/15 10:03:49;;;;;;;3.57;0.60;;;11.80;99.90;;;;;;4986247;28;20183;-73
2023/10/15 10:06:37;;;;;;;8.50;0.73;;;11.50;99.90;;;;;;4991482;28;20179;-73
2023/10/15 10:09:09;;;;;;;3.30;0.67;;;11.70;99.90;;;;;;4990826;28;20206;-73
2023/10/15 10:12:22;;;;;;;2.90;0.83;;;11.90;99.90;;;;;;4991251;28;20314;-73
2023/10/15 10:14:51;;;;;;;4.80;0.63;;;12.10;99.90;;;;;;4931511;28;20233;-72
2023/10/15 10:17:20;;;;;;;4.07;0.83;;;12.10;99.90;;;;;;4973671;28;20229;-73
2023/10/15 10:19:53;;;;;;;2.80;0.63;;;12.40;99.90;;;;;;4991451;28;20186;-73
2023/10/15 10:22:26;;;;;;;2.87;0.80;;;12.50;99.90;;;;;;4988451;28;20179;-74
2023/10/15 10:24:53;;;;;;;5.53;0.63;;;12.40;99.90;;;;;;4989092;28;20270;-73
2023/10/15 10:27:19;;;;;;;3.23;0.90;;;12.60;99.90;;;;;;4989895;28;20340;-74
2023/10/15 10:29:54;;;;;;;5.30;0.80;;;12.60;99.90;;;;;;4973161;28;20179;-74
2023/10/15 10:32:23;;;;;;;4.70;0.90;;;12.90;99.90;;;;;;4990904;28;20673;-73
2023/10/15 10:35:23;;;;;;;4.07;0.80;;;12.90;99.90;;;;;;4990961;28;20579;-73
2023/10/15 10:38:11;;;;;;;1.77;0.80;;;13.40;99.90;;;;;;4984690;28;20324;-73
2023/10/15 10:41:04;;;;;;;12.00;1.05;;;14.30;99.90;;;;;;4990643;28;20262;-74
2023/10/15 10:43:30;;;;;;;5.18;0.80;;;14.20;99.90;;;;;;4968564;28;20608;-74
2023/10/15 10:46:02;;;;;;;6.17;1.27;;;14.00;99.90;;;;;;4983188;28;20181;-75
2023/10/15 10:48:29;;;;;;;4.90;0.82;;;13.90;99.90;;;;;;4984780;28;20262;-75
2023/10/15 10:51:13;;;;;;;3.28;0.73;;;14.10;50.50;;;;;;4984676;28;20235;-74
2023/10/15 10:53:39;;;;;;;6.00;1.20;;;14.00;1.00;;;;;;4993748;28;20171;-74
2023/10/15 10:56:07;;;;;;;10.55;1.40;;;14.10;1.00;;;;;;4991929;28;20242;-74
2023/10/15 10:58:36;;;;;;;4.95;0.98;;;14.30;99.90;;;;;;4993995;28;20179;-75
2023/10/15 11:01:02;;;;;;;3.85;0.95;;;14.70;99.90;;;;;;4993827;28;20202;-75
2023/10/15 11:03:29;;;;;;;3.10;0.90;;;15.60;50.80;;;;;;4993834;28;20199;-75
2023/10/15 11:05:55;;;;;;;4.82;1.10;;;16.20;1.00;;;;;;4993926;28;20270;-75
2023/10/15 11:08:22;;;;;;;3.85;1.02;;;16.70;1.00;;;;;;4994022;28;20262;-76
2023/10/15 11:10:48;;;;;;;6.00;1.30;;;18.00;1.00;;;;;;4994341;28;20178;-76
2023/10/15 11:13:17;;;;;;;5.30;1.60;;;19.40;1.00;;;;;;4993723;28;20177;-77
2023/10/15 11:15:45;;;;;;;7.05;1.25;;;20.40;1.00;;;;;;4993659;28;20238;-77
2023/10/15 11:18:11;;;;;;;4.93;1.67;;;22.00;99.90;;;;;;4994104;28;20202;-79
2023/10/15 11:20:36;;;;;;;6.43;1.15;;;22.50;1.00;;;;;;4995471;28;20183;-78
2023/10/15 11:23:08;;;;;;;5.72;1.33;;;21.60;1.00;;;;;;4998044;28;20174;-77
2023/10/15 11:25:35;;;;;;;2.15;0.80;;;23.20;1.00;;;;;;4980561;28;20175;-78
2023/10/15 11:28:06;;;;;;;3.92;1.38;;;23.80;1.00;;;;;;4994787;28;20172;-79
2023/10/15 11:30:35;;;;;;;5.57;1.45;;;24.00;1.00;;;;;;4994431;28;20172;-78
2023/10/15 11:33:01;;;;;;;7.25;1.88;;;25.10;1.00;;;;;;4995194;28;20190;-78
2023/10/15 11:35:37;;;;;;;4.05;1.30;;;25.10;1.00;;;;;;4994925;28;20207;-78
2023/10/15 11:38:10;;;;;;;4.03;1.10;;;24.60;99.90;;;;;;4995004;28;20363;-78
2023/10/15 11:40:39;;;;;;;3.97;1.35;;;25.60;63.60;;;;;;4994601;28;20203;-79
2023/10/15 11:43:17;;;;;;;5.20;1.33;;;24.80;1.00;;;;;;4993246;28;20318;-78
2023/10/15 11:45:43;;;;;;;6.30;1.08;;;24.50;99.90;;;;;;4976688;28;20178;-79
2023/10/15 11:48:13;;;;;;;4.30;1.33;;;25.00;96.90;;;;;;4976486;28;20626;-77
2023/10/15 11:50:44;;;;;;;5.45;1.63;;;24.70;1.00;;;;;;4994483;28;20521;-78
2023/10/15 11:53:23;;;;;;;3.00;1.02;;;24.30;1.00;;;;;;4994342;28;20175;-78
2023/10/15 11:55:53;;;;;;;6.97;0.90;;;24.60;1.00;;;;;;4994040;28;20214;-78
2023/10/15 11:58:20;;;;;;;5.60;1.27;;;24.90;1.00;;;;;;4994539;28;20159;-78
2023/10/15 12:00:51;;;;;;;7.32;1.40;;;24.50;99.90;;;;;;4994077;28;20179;-77
2023/10/15 12:03:20;;;;;;;3.72;1.00;;;23.90;99.90;;;;;;4993887;28;20250;-78
2023/10/15 12:05:46;;;;;;;3.95;1.50;;;24.10;44.10;;;;;;4993529;28;20168;-78
2023/10/15 12:08:12;;;;;;;3.45;1.20;;;24.90;1.00;;;;;;4993284;28;20315;-78
2023/10/15 12:10:45;;;;;;;3.00;1.10;;;25.00;19.40;;;;;;4993133;28;20211;-76
2023/10/15 12:13:17;;;;;;;3.92;1.13;;;24.50;1.00;;;;;;4993497;28;20171;-77
2023/10/15 12:15:43;;;;;;;4.32;1.17;;;25.20;1.00;;;;;;4993358;28;20205;-77
2023/10/15 12:18:09;;;;;;;3.42;1.20;;;25.20;1.00;;;;;;4993482;28;20568;-77
2023/10/15 12:20:35;;;;;;;3.83;1.10;;;24.40;1.00;;;;;;4993309;28;20225;-78
2023/10/15 12:23:00;;;;;;;2.47;1.20;;;24.80;1.00;;;;;;4993020;28;20179;-78
2023/10/15 12:25:26;;;;;;;5.45;1.52;;;25.80;1.00;;;;;;4993364;28;20623;-78
2023/10/15 12:27:52;;;;;;;3.42;1.00;;;24.30;99.90;;;;;;4993044;28;20171;-77
2023/10/15 12:30:27;;;;;;;4.30;1.17;;;23.80;99.90;;;;;;4992996;28;20182;-79
2023/10/15 12:32:58;;;;;;;3.40;1.08;;;23.90;99.90;;;;;;4993195;28;20170;-79
2023/10/15 12:35:24;;;;;;;5.72;1.20;;;24.00;9.20;;;;;;4992852;28;20217;-79
2023/10/15 12:37:58;;;;;;;4.55;1.15;;;23.20;4.70;;;;;;4992700;28;20183;-79
2023/10/15 12:40:33;;;;;;;4.07;1.15;;;24.50;99.90;;;;;;4992792;28;20170;-78
2023/10/15 12:43:00;;;;;;;2.38;1.10;;;24.30;65.60;;;;;;4992671;28;20194;-80
2023/10/15 12:45:25;;;;;;;7.22;1.15;;;24.40;1.00;;;;;;4992690;28;20207;-79
2023/10/15 12:47:51;;;;;;;2.30;1.05;;;24.90;1.00;;;;;;4974692;28;20199;-79
2023/10/15 12:50:17;;;;;;;5.15;0.98;;;24.90;1.00;;;;;;4991505;28;20175;-78
2023/10/15 12:52:45;;;;;;;3.67;1.30;;;25.20;1.00;;;;;;4992361;28;20175;-78
2023/10/15 12:55:20;;;;;;;4.13;0.90;;;25.40;1.00;;;;;;4992315;28;20233;-78
2023/10/15 12:57:46;;;;;;;4.20;1.02;;;;;;;;;;4991886;28;20173;-78
2023/10/15 13:00:21;;;;;;;4.95;1.10;;;25.40;1.00;;;;;;4992264;28;20250;-77
2023/10/15 13:02:50;;;;;;;3.72;0.98;;;25.80;1.00;;;;;;4992027;28;20174;-79
2023/10/15 13:05:17;;;;;;;2.42;0.80;;;24.90;1.00;;;;;;4992620;28;20224;-79
2023/10/15 13:07:43;;;;;;;5.43;1.40;;;24.50;1.00;;;;;;4991895;28;20593;-80
2023/10/15 13:10:09;;;;;;;4.22;1.25;;;24.80;1.00;;;;;;4992594;28;20171;-79
2023/10/15 13:12:36;;;;;;;4.70;1.25;;;24.70;1.00;;;;;;4991735;28;20269;-79
2023/10/15 13:15:03;;;;;;;5.80;0.85;;;24.20;1.00;;;;;;4992192;28;20178;-77
2023/10/15 13:17:28;;;;;;;3.28;1.30;;;23.90;1.00;;;;;;4992078;28;20195;-77